West Bend, Iowa
Current Conditions -  °F | °C
As of 5:15 AM on Sunday 23 Nov 2014 (Local Time) from KAXA Reporting Station
Haze Haze  
Wind Chill: 50°   Ceiling: 400
Heat Index: 50°   Visibility: 5mi
Dew Point: 50°   Wind: 15mph
Humidity: 100%   Direction: 170°S
Pressure: 29.47"   Gusts: NA
Location:  42.96°N, 94.45°W
Report Text: KAXA 231115Z AUTO 17013KT 5SM BR OVC004 10/10 A2947 RMK AO2
Loading
Personal Weather Stations






























Interactive Weather Map New forecast layout! Learn more

10-Day Weather Forecast

Advertisements
Track Severe Weather on mobile